createdAt,value
2023-08-29T00:00:40.868Z,10.35
2023-08-29T00:03:08.651Z,10.27
2023-08-29T00:05:36.827Z,10.27
2023-08-29T00:08:04.720Z,10.57
2023-08-29T00:10:32.746Z,9.32
2023-08-29T00:13:00.153Z,9.77
2023-08-29T00:15:27.581Z,11.00
2023-08-29T00:17:55.312Z,10.02
2023-08-29T00:20:22.716Z,10.25
2023-08-29T00:22:50.119Z,9.15
2023-08-29T00:25:17.743Z,10.25
2023-08-29T00:27:45.152Z,9.18
2023-08-29T00:30:13.184Z,8.90
2023-08-29T00:32:42.208Z,9.45
2023-08-29T00:35:09.925Z,10.57
2023-08-29T00:37:37.684Z,9.05
2023-08-29T00:40:05.897Z,9.75
2023-08-29T00:42:33.412Z,9.98
2023-08-29T00:45:00.848Z,9.65
2023-08-29T00:47:28.982Z,9.57
2023-08-29T00:49:56.501Z,9.73
2023-08-29T00:52:23.974Z,9.95
2023-08-29T00:54:51.723Z,9.85
2023-08-29T00:57:19.218Z,9.57
2023-08-29T00:59:46.667Z,10.60
2023-08-29T01:02:14.327Z,9.38
2023-08-29T01:04:41.766Z,10.27
2023-08-29T01:07:09.544Z,9.85
2023-08-29T01:09:39.134Z,9.80
2023-08-29T01:12:15.498Z,10.02
2023-08-29T01:14:56.402Z,10.43
2023-08-29T01:17:36.364Z,10.63
2023-08-29T01:20:06.447Z,11.35
2023-08-29T01:23:14.705Z,11.45
2023-08-29T01:25:54.129Z,11.27
2023-08-29T01:28:21.898Z,11.90
2023-08-29T01:30:50.406Z,11.55
2023-08-29T01:33:20.555Z,12.07
2023-08-29T01:35:48.489Z,12.07
2023-08-29T01:38:19.532Z,12.50
2023-08-29T01:40:47.078Z,11.68
2023-08-29T01:43:14.512Z,12.02
2023-08-29T01:45:42.336Z,11.85
2023-08-29T01:48:12.473Z,12.57
2023-08-29T01:50:40.827Z,12.23
2023-08-29T01:53:09.522Z,11.18
2023-08-29T01:55:38.411Z,11.02
2023-08-29T01:58:07.132Z,11.25
2023-08-29T02:00:36.941Z,11.88
2023-08-29T02:03:04.797Z,12.13
2023-08-29T02:05:32.269Z,11.77
2023-08-29T02:08:00.141Z,10.63
2023-08-29T02:10:31.404Z,11.05
2023-08-29T02:12:58.846Z,10.90
2023-08-29T02:15:26.280Z,10.23
2023-08-29T02:17:54.625Z,10.85
2023-08-29T02:20:22.680Z,10.77
2023-08-29T02:22:50.081Z,9.98
2023-08-29T02:25:17.621Z,10.93
2023-08-29T02:27:45.383Z,11.10
2023-08-29T02:30:13.190Z,11.52
2023-08-29T02:32:41.323Z,10.77
2023-08-29T02:35:11.557Z,11.18
2023-08-29T02:37:39.314Z,10.20
2023-08-29T02:40:10.465Z,11.25
2023-08-29T02:42:38.295Z,10.52
2023-08-29T02:45:06.113Z,9.82
2023-08-29T02:47:33.640Z,9.48
2023-08-29T02:50:02.187Z,9.50
2023-08-29T02:52:29.878Z,8.93
2023-08-29T02:54:57.418Z,8.50
2023-08-29T02:57:25.776Z,8.70
2023-08-29T02:59:53.335Z,8.80
2023-08-29T03:02:20.827Z,8.63
2023-08-29T03:04:48.580Z,8.18
2023-08-29T03:07:16.025Z,8.20
2023-08-29T03:09:43.450Z,8.43
2023-08-29T03:12:11.197Z,8.30
2023-08-29T03:14:38.626Z,9.00
2023-08-29T03:17:06.720Z,8.65
2023-08-29T03:19:34.490Z,9.57
2023-08-29T03:22:01.931Z,9.10
2023-08-29T03:24:29.909Z,9.63
2023-08-29T03:26:57.637Z,9.38
2023-08-29T03:29:25.074Z,8.93
2023-08-29T03:31:52.660Z,8.93
2023-08-29T03:34:20.391Z,9.05
2023-08-29T03:36:47.851Z,8.75
2023-08-29T03:39:15.302Z,7.50
2023-08-29T03:41:43.045Z,8.52
2023-08-29T03:44:10.437Z,8.57
2023-08-29T03:46:37.860Z,8.02
2023-08-29T03:49:05.532Z,8.27
2023-08-29T03:51:34.126Z,8.05
2023-08-29T03:54:01.588Z,7.95
2023-08-29T03:56:29.520Z,7.87
2023-08-29T03:58:57.033Z,8.23
2023-08-29T04:01:24.540Z,8.40
2023-08-29T04:03:54.264Z,8.45
2023-08-29T04:06:22.228Z,7.43
2023-08-29T04:08:49.759Z,8.73
2023-08-29T04:11:19.116Z,9.25
2023-08-29T04:13:47.039Z,8.07
2023-08-29T04:16:14.495Z,8.90
2023-08-29T04:18:42.866Z,8.15
2023-08-29T04:21:10.841Z,8.02
2023-08-29T04:23:38.408Z,9.10
2023-08-29T04:26:06.217Z,8.38
2023-08-29T04:28:33.784Z,7.90
2023-08-29T04:31:11.175Z,8.70
2023-08-29T04:33:40.203Z,8.20
2023-08-29T04:36:09.123Z,8.45
2023-08-29T04:38:36.669Z,8.13
2023-08-29T04:41:05.145Z,7.95
2023-08-29T04:43:32.600Z,8.43
2023-08-29T04:46:00.709Z,7.72
2023-08-29T04:48:28.726Z,8.07
2023-08-29T04:50:56.152Z,8.07
2023-08-29T04:53:24.360Z,7.65
2023-08-29T04:56:02.330Z,8.15
2023-08-29T04:58:34.097Z,7.55
2023-08-29T05:01:02.145Z,8.35
2023-08-29T05:03:29.693Z,8.48
2023-08-29T05:05:58.832Z,8.85
2023-08-29T05:08:26.662Z,8.70
2023-08-29T05:10:54.075Z,8.27
2023-08-29T05:13:21.501Z,9.15
2023-08-29T05:15:49.248Z,8.60
2023-08-29T05:18:16.770Z,8.15
2023-08-29T05:20:44.632Z,8.88
2023-08-29T05:23:12.308Z,9.32
2023-08-29T05:25:40.869Z,9.50
2023-08-29T05:28:08.668Z,8.90
2023-08-29T05:30:36.717Z,9.55
2023-08-29T05:33:04.197Z,9.30
2023-08-29T05:35:31.716Z,9.77
2023-08-29T05:37:59.572Z,10.10
2023-08-29T05:40:26.983Z,9.68
2023-08-29T05:42:54.401Z,9.68
2023-08-29T05:45:22.118Z,10.35
2023-08-29T05:47:49.580Z,9.70
2023-08-29T05:50:17.095Z,9.93
2023-08-29T05:52:44.853Z,9.30
2023-08-29T05:55:12.288Z,10.15
2023-08-29T05:57:39.713Z,10.50
2023-08-29T06:00:13.680Z,10.15
2023-08-29T06:02:41.673Z,10.60
2023-08-29T06:05:10.197Z,10.20
2023-08-29T06:07:40.079Z,10.57
2023-08-29T06:10:08.828Z,10.43
2023-08-29T06:12:36.609Z,11.38
2023-08-29T06:15:04.153Z,9.95
2023-08-29T06:17:32.133Z,10.45
2023-08-29T06:19:59.874Z,10.82
2023-08-29T06:22:27.286Z,10.98
2023-08-29T06:24:56.037Z,10.75
2023-08-29T06:27:23.818Z,11.43
2023-08-29T06:29:51.227Z,10.60
2023-08-29T06:32:18.762Z,11.55
2023-08-29T06:34:46.496Z,11.35
2023-08-29T06:37:14.972Z,11.27
2023-08-29T06:39:43.928Z,11.05
2023-08-29T06:42:11.602Z,11.50
2023-08-29T06:44:39.064Z,10.90
2023-08-29T06:47:06.505Z,10.63
2023-08-29T06:49:34.225Z,9.85
2023-08-29T06:52:01.672Z,10.38
2023-08-29T06:54:31.838Z,9.07
2023-08-29T06:56:59.782Z,10.98
2023-08-29T06:59:27.258Z,10.27
2023-08-29T07:01:54.709Z,11.18
2023-08-29T07:04:22.445Z,9.15
2023-08-29T07:06:49.914Z,10.38
2023-08-29T07:09:17.497Z,9.73
2023-08-29T07:11:45.188Z,11.05
2023-08-29T07:14:12.597Z,10.27
2023-08-29T07:16:40.043Z,10.55
2023-08-29T07:19:07.732Z,10.18
2023-08-29T07:21:35.192Z,10.25
2023-08-29T07:24:02.613Z,10.32
2023-08-29T07:26:30.314Z,10.13
2023-08-29T07:28:57.788Z,10.45
2023-08-29T07:31:25.185Z,9.90
2023-08-29T07:33:52.965Z,11.12
2023-08-29T07:36:20.384Z,10.50
2023-08-29T07:38:47.905Z,10.95
2023-08-29T07:41:15.673Z,11.80
2023-08-29T07:43:43.098Z,10.27
2023-08-29T07:46:10.550Z,11.50
2023-08-29T07:48:38.258Z,11.63
2023-08-29T07:51:05.656Z,10.98
2023-08-29T07:53:33.073Z,11.10
2023-08-29T07:56:00.814Z,10.48
2023-08-29T07:58:28.264Z,10.13
2023-08-29T08:00:55.856Z,10.93
2023-08-29T08:03:23.602Z,11.43
2023-08-29T08:05:51.531Z,11.05
2023-08-29T08:08:20.232Z,9.98
2023-08-29T08:10:47.930Z,11.40
2023-08-29T08:13:15.362Z,11.20
2023-08-29T08:15:42.927Z,10.50
2023-08-29T08:18:10.860Z,10.43
2023-08-29T08:20:38.488Z,10.32
2023-08-29T08:23:07.311Z,9.85
2023-08-29T08:25:35.232Z,10.35
2023-08-29T08:28:02.644Z,11.07
2023-08-29T08:30:30.156Z,10.32
2023-08-29T08:32:57.845Z,10.70
2023-08-29T08:35:26.583Z,10.25
2023-08-29T08:37:54.861Z,10.63
2023-08-29T08:40:22.591Z,10.18
2023-08-29T08:42:50.068Z,11.57
2023-08-29T08:45:17.914Z,10.10
2023-08-29T08:47:46.682Z,10.93
2023-08-29T08:50:14.160Z,11.57
2023-08-29T08:52:41.955Z,11.57
2023-08-29T08:55:10.100Z,11.85
2023-08-29T08:57:37.804Z,11.93
2023-08-29T09:00:07.777Z,11.98
2023-08-29T09:02:38.864Z,12.00
2023-08-29T09:05:25.323Z,11.80
2023-08-29T09:07:53.079Z,12.37
2023-08-29T09:10:21.153Z,12.32
2023-08-29T09:12:53.079Z,11.15
2023-08-29T09:15:21.146Z,11.68
2023-08-29T09:17:49.893Z,12.73
2023-08-29T09:20:18.182Z,10.27
2023-08-29T09:22:46.816Z,11.77
2023-08-29T09:25:14.592Z,11.52
2023-08-29T09:27:44.363Z,10.95
2023-08-29T09:30:13.465Z,9.95
2023-08-29T09:32:49.135Z,11.12
2023-08-29T09:35:20.134Z,10.38
2023-08-29T09:37:53.477Z,10.65
2023-08-29T09:42:59.556Z,11.25
2023-08-29T09:45:31.454Z,11.48
2023-08-29T09:48:03.703Z,11.73
2023-08-29T09:50:32.159Z,10.73
2023-08-29T09:53:00.813Z,10.77
2023-08-29T09:55:33.877Z,11.85
2023-08-29T09:58:02.746Z,11.93
2023-08-29T10:00:30.999Z,11.98
2023-08-29T10:02:59.728Z,11.57
2023-08-29T10:05:29.483Z,11.57
2023-08-29T10:08:19.779Z,11.57
2023-08-29T10:10:48.459Z,12.90
2023-08-29T10:13:16.884Z,11.95
2023-08-29T10:15:45.464Z,10.68
2023-08-29T10:18:14.098Z,11.57
2023-08-29T10:20:44.933Z,11.25
2023-08-29T10:23:14.996Z,12.70
2023-08-29T10:25:43.179Z,12.50
2023-08-29T10:28:13.388Z,12.15
2023-08-29T10:30:44.700Z,13.23
2023-08-29T10:33:12.887Z,13.45
2023-08-29T10:35:40.923Z,12.68
2023-08-29T10:38:15.194Z,12.07
2023-08-29T10:40:44.519Z,11.63
2023-08-29T10:43:22.716Z,12.10
2023-08-29T10:45:53.761Z,12.55
2023-08-29T10:48:45.411Z,12.63
2023-08-29T10:51:27.832Z,10.75
2023-08-29T10:54:12.317Z,11.12
2023-08-29T10:56:44.552Z,10.23
2023-08-29T10:59:32.467Z,10.40
2023-08-29T11:02:33.323Z,10.38
2023-08-29T11:05:03.593Z,9.80
2023-08-29T11:07:32.592Z,9.90
2023-08-29T11:10:21.245Z,10.68
2023-08-29T11:13:09.086Z,9.90
2023-08-29T11:15:48.547Z,10.38
2023-08-29T11:18:36.165Z,9.75
2023-08-29T11:21:07.850Z,10.68
2023-08-29T11:23:43.044Z,10.05
2023-08-29T11:26:10.983Z,10.20
2023-08-29T11:28:46.580Z,8.73
2023-08-29T11:31:14.198Z,10.07
2023-08-29T11:33:41.973Z,8.80
2023-08-29T11:36:11.021Z,9.80
2023-08-29T11:38:38.839Z,10.30
2023-08-29T11:41:24.997Z,8.93
2023-08-29T11:44:30.800Z,9.40
2023-08-29T11:46:45.093Z,8.43
2023-08-29T11:49:14.578Z,9.18
2023-08-29T11:51:42.297Z,9.30
2023-08-29T11:54:42.602Z,9.30
2023-08-29T11:57:14.248Z,7.53
2023-08-29T11:59:45.869Z,8.05
2023-08-29T12:02:18.684Z,7.53
2023-08-29T12:04:48.580Z,8.38
2023-08-29T12:07:17.852Z,7.40
2023-08-29T12:09:47.413Z,7.95
2023-08-29T12:12:37.505Z,8.25
2023-08-29T12:15:15.358Z,7.57
2023-08-29T12:17:48.440Z,7.28
2023-08-29T12:20:16.599Z,9.25
2023-08-29T12:22:51.856Z,8.88
2023-08-29T12:25:20.599Z,9.25
2023-08-29T12:27:49.056Z,9.05
2023-08-29T12:30:16.945Z,7.47
2023-08-29T12:32:45.918Z,7.05
2023-08-29T12:35:16.540Z,8.65
2023-08-29T12:37:44.065Z,8.30
2023-08-29T12:40:13.486Z,7.87
2023-08-29T12:42:42.167Z,8.60
2023-08-29T12:45:10.418Z,7.72
2023-08-29T12:47:40.751Z,8.43
2023-08-29T12:50:09.447Z,8.25
2023-08-29T12:52:37.000Z,7.78
2023-08-29T12:55:05.643Z,8.00
2023-08-29T12:57:33.360Z,8.07
2023-08-29T13:00:00.796Z,8.73
2023-08-29T13:02:28.356Z,7.93
2023-08-29T13:04:56.218Z,8.05
2023-08-29T13:07:23.639Z,8.07
2023-08-29T13:09:52.898Z,7.25
2023-08-29T13:12:21.895Z,7.85
2023-08-29T13:14:49.365Z,7.72
2023-08-29T13:17:17.685Z,7.62
2023-08-29T13:19:45.592Z,8.70
2023-08-29T13:22:13.101Z,8.45
2023-08-29T13:24:40.600Z,8.43
2023-08-29T13:27:09.356Z,8.15
2023-08-29T13:29:36.896Z,8.60
2023-08-29T13:32:04.526Z,8.48
2023-08-29T13:34:50.781Z,7.60
2023-08-29T13:37:18.283Z,7.47
2023-08-29T13:39:46.201Z,8.23
2023-08-29T13:42:13.815Z,7.97
2023-08-29T13:44:42.217Z,7.43
2023-08-29T13:47:11.247Z,7.57
2023-08-29T13:49:41.130Z,7.15
2023-08-29T13:52:09.480Z,7.25
2023-08-29T13:54:37.326Z,7.35
2023-08-29T13:57:06.031Z,7.57
2023-08-29T13:59:33.457Z,7.68
2023-08-29T14:02:02.686Z,6.93
2023-08-29T14:04:33.560Z,7.57
2023-08-29T14:07:01.567Z,6.87
2023-08-29T14:09:29.721Z,7.32
2023-08-29T14:11:57.549Z,7.50
2023-08-29T14:14:25.422Z,8.15
2023-08-29T14:16:54.249Z,7.95
2023-08-29T14:19:23.254Z,7.82
2023-08-29T14:21:51.852Z,8.18
2023-08-29T14:24:21.416Z,8.02
2023-08-29T14:26:50.633Z,8.07
2023-08-29T14:29:18.278Z,8.65
2023-08-29T14:31:46.140Z,9.38
2023-08-29T14:34:14.546Z,8.48
2023-08-29T14:36:42.246Z,9.48
2023-08-29T14:39:10.230Z,9.70
2023-08-29T14:41:38.341Z,8.77
2023-08-29T14:44:06.255Z,8.73
2023-08-29T14:46:33.726Z,7.95
2023-08-29T14:49:04.010Z,8.07
2023-08-29T14:51:31.922Z,7.80
2023-08-29T14:54:04.462Z,7.22
2023-08-29T14:56:33.242Z,7.70
2023-08-29T14:59:00.910Z,7.82
2023-08-29T15:01:28.375Z,7.37
2023-08-29T15:03:56.967Z,7.90
2023-08-29T15:06:27.007Z,7.78
2023-08-29T15:08:55.298Z,7.30
2023-08-29T15:11:23.995Z,8.23
2023-08-29T15:13:51.947Z,8.27
2023-08-29T15:16:20.004Z,7.80
2023-08-29T15:18:47.911Z,8.18
2023-08-29T15:21:17.538Z,7.37
2023-08-29T15:23:48.249Z,7.37
2023-08-29T15:26:17.273Z,7.95
2023-08-29T15:28:44.788Z,8.02
2023-08-29T15:31:12.619Z,8.38
2023-08-29T15:33:40.845Z,8.20
2023-08-29T15:36:09.037Z,8.07
2023-08-29T15:38:37.562Z,7.53
2023-08-29T15:41:06.993Z,8.07
2023-08-29T15:43:36.112Z,8.10
2023-08-29T15:46:06.920Z,7.40
2023-08-29T15:48:36.290Z,7.95
2023-08-29T15:51:06.226Z,7.72
2023-08-29T15:53:37.515Z,8.10
2023-08-29T15:56:08.452Z,7.85
2023-08-29T15:58:36.827Z,7.70
2023-08-29T16:01:08.312Z,8.15
2023-08-29T16:03:36.576Z,8.15
2023-08-29T16:06:08.806Z,8.40
2023-08-29T16:08:37.665Z,8.15
2023-08-29T16:11:05.626Z,8.00
2023-08-29T16:13:33.640Z,8.18
2023-08-29T16:16:02.454Z,9.07
2023-08-29T16:18:30.255Z,8.73
2023-08-29T16:20:58.914Z,8.52
2023-08-29T16:23:27.025Z,8.05
2023-08-29T16:25:54.980Z,8.32
2023-08-29T16:28:24.500Z,8.55
2023-08-29T16:30:52.976Z,8.70
2023-08-29T16:33:22.834Z,9.20
2023-08-29T16:35:51.264Z,7.75
2023-08-29T16:38:20.428Z,7.93
2023-08-29T16:40:51.449Z,7.97
2023-08-29T16:43:22.170Z,7.75
2023-08-29T16:45:49.804Z,7.57
2023-08-29T16:48:18.656Z,8.05
2023-08-29T16:50:49.431Z,8.10
2023-08-29T16:53:17.178Z,8.23
2023-08-29T16:55:46.191Z,8.55
2023-08-29T16:58:14.296Z,7.75
2023-08-29T17:00:43.723Z,7.97
2023-08-29T17:03:12.623Z,8.82
2023-08-29T17:05:43.465Z,8.43
2023-08-29T17:08:13.572Z,8.50
2023-08-29T17:10:42.896Z,8.50
2023-08-29T17:13:11.334Z,7.85
2023-08-29T17:15:39.586Z,7.55
2023-08-29T17:18:07.751Z,8.00
2023-08-29T17:20:36.106Z,8.13
2023-08-29T17:23:04.534Z,8.38
2023-08-29T17:25:33.334Z,7.22
2023-08-29T17:28:01.944Z,8.30
2023-08-29T17:30:30.086Z,8.07
2023-08-29T17:32:58.546Z,7.47
2023-08-29T17:35:26.790Z,8.52
2023-08-29T17:37:55.083Z,8.43
2023-08-29T17:40:23.295Z,8.82
2023-08-29T17:42:51.388Z,8.45
2023-08-29T17:45:20.149Z,8.73
2023-08-29T17:47:50.033Z,7.95
2023-08-29T17:50:19.061Z,8.15
2023-08-29T17:52:48.986Z,8.65
2023-08-29T17:55:18.330Z,9.38
2023-08-29T17:57:50.101Z,9.63
2023-08-29T18:00:20.760Z,10.05
2023-08-29T18:02:48.980Z,10.55
2023-08-29T18:05:17.210Z,10.10
2023-08-29T18:07:45.291Z,10.90
2023-08-29T18:10:18.310Z,11.48
2023-08-29T18:12:46.641Z,11.60
2023-08-29T18:15:16.218Z,10.38
2023-08-29T18:17:44.201Z,9.10
2023-08-29T18:20:12.744Z,8.85
2023-08-29T18:22:41.645Z,8.32
2023-08-29T18:25:10.066Z,8.57
2023-08-29T18:27:38.106Z,8.23
2023-08-29T18:30:08.435Z,8.35
2023-08-29T18:32:37.041Z,8.90
2023-08-29T18:35:05.852Z,9.27
2023-08-29T18:37:35.667Z,8.27
2023-08-29T18:40:04.376Z,8.63
2023-08-29T18:42:34.574Z,8.02
2023-08-29T18:45:05.392Z,7.75
2023-08-29T18:47:34.166Z,8.18
2023-08-29T18:50:03.100Z,8.80
2023-08-29T18:52:31.852Z,9.68
2023-08-29T18:55:01.148Z,8.40
2023-08-29T18:57:34.238Z,8.70
2023-08-29T19:00:02.524Z,8.50
2023-08-29T19:02:31.580Z,7.60
2023-08-29T19:05:01.727Z,5.57
2023-08-29T19:07:31.752Z,5.30
2023-08-29T19:10:02.995Z,3.55
2023-08-29T19:12:33.644Z,3.08
2023-08-29T19:15:06.385Z,2.47
2023-08-29T19:17:35.178Z,2.53
2023-08-29T19:20:05.089Z,1.98
2023-08-29T19:22:35.664Z,1.98
2023-08-29T19:25:04.805Z,1.80
2023-08-29T19:27:33.446Z,1.90
2023-08-29T19:30:07.896Z,1.50
2023-08-29T19:32:37.263Z,1.30
2023-08-29T19:35:05.872Z,1.65
2023-08-29T19:37:34.373Z,1.45
2023-08-29T19:40:03.544Z,1.70
2023-08-29T19:42:31.841Z,1.40
2023-08-29T19:45:00.434Z,1.23
2023-08-29T19:47:29.657Z,1.50
2023-08-29T19:49:58.442Z,1.60
2023-08-29T19:52:28.426Z,1.60
2023-08-29T19:54:58.366Z,1.40
2023-08-29T19:57:27.326Z,1.20
2023-08-29T19:59:55.871Z,1.23
2023-08-29T20:02:24.946Z,1.20
2023-08-29T20:04:53.959Z,1.20
2023-08-29T20:07:22.429Z,1.50
2023-08-29T20:09:51.228Z,1.33
2023-08-29T20:12:20.612Z,1.23
2023-08-29T20:14:49.218Z,1.80
2023-08-29T20:17:17.966Z,2.00
2023-08-29T20:19:46.630Z,2.30
2023-08-29T20:22:14.850Z,2.67
2023-08-29T20:24:43.507Z,3.37
2023-08-29T20:27:12.682Z,2.92
2023-08-29T20:29:40.786Z,3.45
2023-08-29T20:32:10.708Z,3.08
2023-08-29T20:34:39.782Z,2.58
2023-08-29T20:37:08.512Z,3.53
2023-08-29T20:39:37.210Z,3.53
2023-08-29T20:42:07.509Z,3.60
2023-08-29T20:44:35.213Z,3.05
2023-08-29T20:47:02.800Z,3.17
2023-08-29T20:49:31.128Z,2.75
2023-08-29T20:51:58.778Z,2.92
2023-08-29T20:54:27.366Z,3.17
2023-08-29T20:56:55.981Z,2.87
2023-08-29T20:59:24.049Z,2.37
2023-08-29T21:01:51.819Z,2.08
2023-08-29T21:04:19.552Z,2.03
2023-08-29T21:06:47.013Z,2.37
2023-08-29T21:09:17.148Z,1.70
2023-08-29T21:11:45.141Z,1.67
2023-08-29T21:14:12.589Z,1.62
2023-08-29T21:16:40.100Z,1.20
2023-08-29T21:19:07.854Z,1.45
2023-08-29T21:21:35.394Z,1.20
2023-08-29T21:24:02.840Z,1.33
2023-08-29T21:26:30.997Z,1.05
2023-08-29T21:28:58.500Z,1.10
2023-08-29T21:31:26.949Z,1.50
2023-08-29T21:33:54.704Z,1.80
2023-08-29T21:36:22.147Z,1.90
2023-08-29T21:38:49.602Z,1.80
2023-08-29T21:41:17.325Z,1.80
2023-08-29T21:43:44.796Z,1.73
2023-08-29T21:46:12.338Z,1.52
2023-08-29T21:48:40.059Z,1.55
2023-08-29T21:51:12.046Z,1.75
2023-08-29T21:53:39.882Z,1.55
2023-08-29T21:56:10.612Z,1.73
2023-08-29T21:58:38.017Z,1.45
2023-08-29T22:01:05.757Z,1.25
2023-08-29T22:03:33.689Z,1.40
2023-08-29T22:06:01.180Z,1.48
2023-08-29T22:08:28.606Z,1.42
2023-08-29T22:10:56.338Z,1.90
2023-08-29T22:13:23.770Z,1.98
2023-08-29T22:15:52.214Z,2.03
2023-08-29T22:18:19.994Z,2.83
2023-08-29T22:20:49.009Z,3.72
2023-08-29T22:23:16.457Z,3.55
2023-08-29T22:25:44.202Z,4.15
2023-08-29T22:28:11.665Z,4.12
2023-08-29T22:30:42.001Z,5.32
2023-08-29T22:33:09.838Z,5.20
2023-08-29T22:35:42.752Z,4.57
2023-08-29T22:38:12.439Z,5.87
2023-08-29T22:40:40.268Z,5.82
2023-08-29T22:43:07.987Z,5.62
2023-08-29T22:45:35.711Z,6.68
2023-08-29T22:48:03.527Z,6.68
2023-08-29T22:50:30.955Z,6.82
2023-08-29T22:52:58.641Z,7.25
2023-08-29T22:55:27.429Z,6.50
2023-08-29T22:57:54.840Z,6.40
2023-08-29T23:00:22.549Z,5.95
2023-08-29T23:02:50.066Z,5.93
2023-08-29T23:05:17.574Z,6.07
2023-08-29T23:07:45.266Z,5.32
2023-08-29T23:10:12.773Z,5.28
2023-08-29T23:12:40.171Z,5.07
2023-08-29T23:15:08.116Z,4.80
2023-08-29T23:17:35.538Z,5.00
2023-08-29T23:20:05.438Z,5.30
2023-08-29T23:22:33.092Z,5.70
2023-08-29T23:25:00.497Z,5.40
2023-08-29T23:27:27.884Z,5.95
2023-08-29T23:29:55.707Z,5.20
2023-08-29T23:32:24.690Z,5.40
2023-08-29T23:34:53.196Z,5.35
2023-08-29T23:37:21.221Z,6.40
2023-08-29T23:39:50.043Z,5.37
2023-08-29T23:42:17.476Z,5.47
2023-08-29T23:44:45.703Z,5.37
2023-08-29T23:47:13.276Z,5.85
2023-08-29T23:49:40.734Z,4.93
2023-08-29T23:52:08.744Z,5.15
2023-08-29T23:54:36.226Z,4.78
2023-08-29T23:57:03.812Z,4.97
2023-08-29T23:59:31.568Z,5.35
